Garnavillo, IA (52049)

12:01 AM CDT on April 27, 2017 (GMT -0500)
Prairie Du Chien Municipal | | Change Station

Elev 659 ft 43.02 °N, 91.12 °W | Updated 6 minutes ago

Rain
Rain
42 °F
Feels Like 37 °F
N
9
Wind Variable Wind from NW

Today
High -- | Low -- °F
--% Chance of Precip.
Yesterday
High -- | Low -- °F
Precip. -- in
Pressure 29.51 in
Visibility 10.0 miles
Clouds Scattered Clouds 1500 ft
Mostly Cloudy 2100 ft
Overcast 2800 ft
Windchill 37 °F
Dew Point 37 °F
Humidity 81%
Rainfall 0.23 in
Snow Depth Not available.
6:04 AM 8:01 PM
New Moon, 1% visible
METAR KPDC 270455Z AUTO 31008KT 10SM -RA SCT015 BKN021 OVC028 06/03 A2951 RMK AO2 T00570026
Pressure 29.51 in
Visibility 10.0 miles
Clouds Scattered Clouds 1500 ft
Mostly Cloudy 2100 ft
Overcast 2800 ft
Windchill 37 °F
Dew Point 37 °F
Humidity 81%
Rainfall 0.23 in
Snow Depth Not available.
6:04 AM 8:01 PM
New Moon, 1% visible
METAR KPDC 270455Z AUTO 31008KT 10SM -RA SCT015 BKN021 OVC028 06/03 A2951 RMK AO2 T00570026

Get Severe Weather Alerts

Thanks for signing up!

Be on the lookout for a verification email in your inbox.

You'll start receiving the daily forecast at 8 AM.

×

10-Day Weather Forecast

Almanac

Astronomy

Apr. 27, 2017 Rise Set
Actual Time
Civil Twilight
Nautical Twilight
Astronomical Twilight
Moon
Length of Visible Light
Length of Day
Tomorrow will be .
, % of the Moon is Illuminated

Today's Extremes

State Highs State Lows

Community

WunderPhotos

WunderBlog® & News

Nearby

Air Quality

  Air Quality AQ Index Pollutant
Not available.

Snow Depth

Station Depth Elevation

Earthquake Activity

City Distance Mag. Time & Date
Minimum magnitude displayed is 2.5.

Coastal Water Temperatures

Place Temperature

Stations

Nearby Weather Stations

Station Location Temp. Windchill Dew Point Humidity Wind Precip. Elev Updated Type
                   

Watches & Warnings

There are currently no watches in effect.